sensor_id;sensor_type;location;lat;lon;timestamp;P1;durP1;ratioP1;P2;durP2;ratioP2
33696;SDS011;20031;43.416;23.232;2022-09-21T00:02:13;6.45;;;1.50;;
33696;SDS011;20031;43.416;23.232;2022-09-21T00:04:38;4.00;;;1.38;;
33696;SDS011;20031;43.416;23.232;2022-09-21T00:07:04;1.52;;;1.08;;
33696;SDS011;20031;43.416;23.232;2022-09-21T00:09:29;2.25;;;1.30;;
33696;SDS011;20031;43.416;23.232;2022-09-21T00:11:55;2.45;;;1.00;;
33696;SDS011;20031;43.416;23.232;2022-09-21T00:14:21;1.55;;;1.10;;
33696;SDS011;20031;43.416;23.232;2022-09-21T00:16:46;2.03;;;1.10;;
33696;SDS011;20031;43.416;23.232;2022-09-21T00:19:12;4.70;;;1.00;;
33696;SDS011;20031;43.416;23.232;2022-09-21T00:21:37;1.60;;;1.05;;
33696;SDS011;20031;43.416;23.232;2022-09-21T00:24:04;1.77;;;0.90;;
33696;SDS011;20031;43.416;23.232;2022-09-21T00:26:31;1.77;;;0.90;;
33696;SDS011;20031;43.416;23.232;2022-09-21T00:28:57;2.45;;;1.00;;
33696;SDS011;20031;43.416;23.232;2022-09-21T00:31:25;3.65;;;1.15;;
33696;SDS011;20031;43.416;23.232;2022-09-21T00:33:51;2.38;;;1.17;;
33696;SDS011;20031;43.416;23.232;2022-09-21T00:36:18;3.65;;;1.00;;
33696;SDS011;20031;43.416;23.232;2022-09-21T00:38:48;3.63;;;1.20;;
33696;SDS011;20031;43.416;23.232;2022-09-21T00:41:15;3.50;;;1.33;;
33696;SDS011;20031;43.416;23.232;2022-09-21T00:43:48;3.33;;;1.00;;
33696;SDS011;20031;43.416;23.232;2022-09-21T00:46:45;1.77;;;0.90;;
33696;SDS011;20031;43.416;23.232;2022-09-21T00:49:13;8.75;;;1.30;;
33696;SDS011;20031;43.416;23.232;2022-09-21T00:51:39;1.52;;;1.00;;
33696;SDS011;20031;43.416;23.232;2022-09-21T00:54:07;1.58;;;0.90;;
33696;SDS011;20031;43.416;23.232;2022-09-21T00:56:39;1.20;;;0.85;;
33696;SDS011;20031;43.416;23.232;2022-09-21T00:59:06;3.40;;;1.10;;
33696;SDS011;20031;43.416;23.232;2022-09-21T01:01:33;1.30;;;0.90;;
33696;SDS011;20031;43.416;23.232;2022-09-21T01:04:00;1.80;;;1.00;;
33696;SDS011;20031;43.416;23.232;2022-09-21T01:06:26;1.50;;;0.98;;
33696;SDS011;20031;43.416;23.232;2022-09-21T01:08:52;2.60;;;1.00;;
33696;SDS011;20031;43.416;23.232;2022-09-21T01:30:37;0.90;;;0.70;;
33696;SDS011;20031;43.416;23.232;2022-09-21T01:35:36;4.03;;;0.80;;
33696;SDS011;20031;43.416;23.232;2022-09-21T01:38:11;2.10;;;0.77;;
33696;SDS011;20031;43.416;23.232;2022-09-21T01:40:46;3.08;;;0.90;;
33696;SDS011;20031;43.416;23.232;2022-09-21T01:43:49;3.15;;;0.80;;
33696;SDS011;20031;43.416;23.232;2022-09-21T01:46:11;1.73;;;0.70;;
33696;SDS011;20031;43.416;23.232;2022-09-21T01:48:41;0.95;;;0.60;;
33696;SDS011;20031;43.416;23.232;2022-09-21T01:51:11;2.05;;;0.80;;
33696;SDS011;20031;43.416;23.232;2022-09-21T01:56:57;2.93;;;0.80;;
33696;SDS011;20031;43.416;23.232;2022-09-21T01:59:37;3.72;;;0.68;;
33696;SDS011;20031;43.416;23.232;2022-09-21T02:02:16;2.83;;;0.70;;
33696;SDS011;20031;43.416;23.232;2022-09-21T02:04:46;0.85;;;0.70;;
33696;SDS011;20031;43.416;23.232;2022-09-21T02:07:11;3.15;;;0.65;;
33696;SDS011;20031;43.416;23.232;2022-09-21T02:09:39;1.27;;;0.70;;
33696;SDS011;20031;43.416;23.232;2022-09-21T02:12:05;2.80;;;0.70;;
33696;SDS011;20031;43.416;23.232;2022-09-21T02:14:30;0.95;;;0.70;;
33696;SDS011;20031;43.416;23.232;2022-09-21T02:28:11;6.95;;;1.17;;
33696;SDS011;20031;43.416;23.232;2022-09-21T02:30:55;1.90;;;0.82;;
33696;SDS011;20031;43.416;23.232;2022-09-21T02:39:25;3.00;;;0.80;;
33696;SDS011;20031;43.416;23.232;2022-09-21T02:42:14;0.93;;;0.80;;
33696;SDS011;20031;43.416;23.232;2022-09-21T02:44:51;1.17;;;0.70;;
33696;SDS011;20031;43.416;23.232;2022-09-21T02:50:21;2.08;;;0.90;;
33696;SDS011;20031;43.416;23.232;2022-09-21T02:52:49;0.90;;;0.60;;
33696;SDS011;20031;43.416;23.232;2022-09-21T02:55:18;1.90;;;0.90;;
33696;SDS011;20031;43.416;23.232;2022-09-21T02:57:44;1.98;;;0.95;;
33696;SDS011;20031;43.416;23.232;2022-09-21T03:00:12;4.20;;;1.30;;
33696;SDS011;20031;43.416;23.232;2022-09-21T03:02:41;3.15;;;1.70;;
33696;SDS011;20031;43.416;23.232;2022-09-21T03:05:08;1.42;;;1.10;;
33696;SDS011;20031;43.416;23.232;2022-09-21T03:07:35;2.10;;;1.20;;
33696;SDS011;20031;43.416;23.232;2022-09-21T03:10:01;2.22;;;1.00;;
33696;SDS011;20031;43.416;23.232;2022-09-21T03:12:28;3.08;;;1.00;;
33696;SDS011;20031;43.416;23.232;2022-09-21T03:14:54;5.47;;;1.48;;
33696;SDS011;20031;43.416;23.232;2022-09-21T03:17:20;5.60;;;1.75;;
33696;SDS011;20031;43.416;23.232;2022-09-21T03:19:46;5.07;;;1.15;;
33696;SDS011;20031;43.416;23.232;2022-09-21T03:22:11;3.55;;;1.10;;
33696;SDS011;20031;43.416;23.232;2022-09-21T03:24:37;9.40;;;1.90;;
33696;SDS011;20031;43.416;23.232;2022-09-21T03:27:11;6.47;;;1.30;;
33696;SDS011;20031;43.416;23.232;2022-09-21T03:29:38;3.33;;;1.20;;
33696;SDS011;20031;43.416;23.232;2022-09-21T03:32:04;3.10;;;1.30;;
33696;SDS011;20031;43.416;23.232;2022-09-21T03:34:30;5.65;;;2.65;;
33696;SDS011;20031;43.416;23.232;2022-09-21T03:36:58;4.47;;;1.58;;
33696;SDS011;20031;43.416;23.232;2022-09-21T03:39:28;8.27;;;1.17;;
33696;SDS011;20031;43.416;23.232;2022-09-21T03:41:53;3.10;;;1.30;;
33696;SDS011;20031;43.416;23.232;2022-09-21T03:44:22;8.38;;;3.80;;
33696;SDS011;20031;43.416;23.232;2022-09-21T03:46:49;4.95;;;1.50;;
33696;SDS011;20031;43.416;23.232;2022-09-21T03:49:15;2.47;;;1.23;;
33696;SDS011;20031;43.416;23.232;2022-09-21T03:51:41;3.28;;;1.40;;
33696;SDS011;20031;43.416;23.232;2022-09-21T03:54:07;3.85;;;1.00;;
33696;SDS011;20031;43.416;23.232;2022-09-21T03:56:33;5.80;;;1.30;;
33696;SDS011;20031;43.416;23.232;2022-09-21T03:58:59;8.05;;;1.60;;
33696;SDS011;20031;43.416;23.232;2022-09-21T04:01:24;5.97;;;1.38;;
33696;SDS011;20031;43.416;23.232;2022-09-21T04:03:50;9.07;;;1.13;;
33696;SDS011;20031;43.416;23.232;2022-09-21T04:06:15;4.20;;;1.10;;
33696;SDS011;20031;43.416;23.232;2022-09-21T04:08:41;5.40;;;1.10;;
33696;SDS011;20031;43.416;23.232;2022-09-21T04:11:14;6.03;;;1.40;;
33696;SDS011;20031;43.416;23.232;2022-09-21T04:13:42;3.15;;;1.55;;
33696;SDS011;20031;43.416;23.232;2022-09-21T04:16:08;5.28;;;2.30;;
33696;SDS011;20031;43.416;23.232;2022-09-21T04:18:35;4.80;;;1.40;;
33696;SDS011;20031;43.416;23.232;2022-09-21T04:21:04;4.93;;;1.48;;
33696;SDS011;20031;43.416;23.232;2022-09-21T04:23:30;6.63;;;2.88;;
33696;SDS011;20031;43.416;23.232;2022-09-21T04:25:56;8.73;;;2.72;;
33696;SDS011;20031;43.416;23.232;2022-09-21T04:28:22;6.93;;;2.10;;
33696;SDS011;20031;43.416;23.232;2022-09-21T04:30:51;4.80;;;1.90;;
33696;SDS011;20031;43.416;23.232;2022-09-21T04:33:17;3.65;;;2.08;;
33696;SDS011;20031;43.416;23.232;2022-09-21T04:35:42;6.07;;;2.40;;
33696;SDS011;20031;43.416;23.232;2022-09-21T04:38:08;3.17;;;1.30;;
33696;SDS011;20031;43.416;23.232;2022-09-21T04:40:33;2.63;;;1.33;;
33696;SDS011;20031;43.416;23.232;2022-09-21T04:42:58;3.13;;;1.35;;
33696;SDS011;20031;43.416;23.232;2022-09-21T04:45:24;9.18;;;1.48;;
33696;SDS011;20031;43.416;23.232;2022-09-21T04:47:49;10.43;;;1.80;;
33696;SDS011;20031;43.416;23.232;2022-09-21T04:50:15;8.15;;;1.73;;
33696;SDS011;20031;43.416;23.232;2022-09-21T04:52:40;4.97;;;1.25;;
33696;SDS011;20031;43.416;23.232;2022-09-21T04:55:07;4.28;;;1.30;;
33696;SDS011;20031;43.416;23.232;2022-09-21T04:57:32;4.55;;;1.10;;
33696;SDS011;20031;43.416;23.232;2022-09-21T04:59:59;2.58;;;1.30;;
33696;SDS011;20031;43.416;23.232;2022-09-21T05:02:25;9.13;;;2.08;;
33696;SDS011;20031;43.416;23.232;2022-09-21T05:04:51;9.40;;;1.50;;
33696;SDS011;20031;43.416;23.232;2022-09-21T05:07:16;26.70;;;3.63;;
33696;SDS011;20031;43.416;23.232;2022-09-21T05:09:42;11.82;;;1.20;;
33696;SDS011;20031;43.416;23.232;2022-09-21T05:12:26;8.65;;;1.40;;
33696;SDS011;20031;43.416;23.232;2022-09-21T05:14:51;2.22;;;1.10;;
33696;SDS011;20031;43.416;23.232;2022-09-21T05:17:17;4.63;;;1.67;;
33696;SDS011;20031;43.416;23.232;2022-09-21T05:19:46;11.63;;;2.30;;
33696;SDS011;20031;43.416;23.232;2022-09-21T05:22:11;4.20;;;2.38;;
33696;SDS011;20031;43.416;23.232;2022-09-21T05:24:37;12.13;;;1.80;;
33696;SDS011;20031;43.416;23.232;2022-09-21T05:27:03;12.18;;;5.38;;
33696;SDS011;20031;43.416;23.232;2022-09-21T05:29:28;11.20;;;4.18;;
33696;SDS011;20031;43.416;23.232;2022-09-21T05:31:57;9.82;;;3.30;;
33696;SDS011;20031;43.416;23.232;2022-09-21T05:39:51;10.63;;;3.45;;
33696;SDS011;20031;43.416;23.232;2022-09-21T05:42:17;11.05;;;1.60;;
33696;SDS011;20031;43.416;23.232;2022-09-21T05:44:42;9.77;;;1.30;;
33696;SDS011;20031;43.416;23.232;2022-09-21T05:58:09;10.80;;;1.25;;
33696;SDS011;20031;43.416;23.232;2022-09-21T06:03:48;13.18;;;1.30;;
33696;SDS011;20031;43.416;23.232;2022-09-21T06:06:15;18.92;;;1.55;;
33696;SDS011;20031;43.416;23.232;2022-09-21T06:08:42;9.88;;;1.60;;
33696;SDS011;20031;43.416;23.232;2022-09-21T06:11:07;5.75;;;1.27;;
33696;SDS011;20031;43.416;23.232;2022-09-21T06:13:33;5.05;;;1.23;;
33696;SDS011;20031;43.416;23.232;2022-09-21T06:16:02;65.00;;;3.60;;
33696;SDS011;20031;43.416;23.232;2022-09-21T06:18:28;7.15;;;1.35;;
33696;SDS011;20031;43.416;23.232;2022-09-21T06:20:53;14.93;;;1.65;;
33696;SDS011;20031;43.416;23.232;2022-09-21T06:23:19;6.40;;;2.65;;
33696;SDS011;20031;43.416;23.232;2022-09-21T06:25:49;7.07;;;2.00;;
33696;SDS011;20031;43.416;23.232;2022-09-21T06:28:16;5.43;;;2.00;;
33696;SDS011;20031;43.416;23.232;2022-09-21T06:30:41;3.10;;;1.00;;
33696;SDS011;20031;43.416;23.232;2022-09-21T06:33:09;7.82;;;1.80;;
33696;SDS011;20031;43.416;23.232;2022-09-21T06:35:35;4.75;;;1.52;;
33696;SDS011;20031;43.416;23.232;2022-09-21T06:38:02;3.72;;;1.20;;
33696;SDS011;20031;43.416;23.232;2022-09-21T06:40:29;9.48;;;1.88;;
33696;SDS011;20031;43.416;23.232;2022-09-21T06:42:57;10.70;;;1.83;;
33696;SDS011;20031;43.416;23.232;2022-09-21T06:45:24;15.73;;;1.00;;
33696;SDS011;20031;43.416;23.232;2022-09-21T06:47:50;29.25;;;2.00;;
33696;SDS011;20031;43.416;23.232;2022-09-21T06:50:15;9.55;;;1.10;;
33696;SDS011;20031;43.416;23.232;2022-09-21T06:52:41;19.27;;;2.78;;
33696;SDS011;20031;43.416;23.232;2022-09-21T06:55:06;3.47;;;1.27;;
33696;SDS011;20031;43.416;23.232;2022-09-21T06:57:34;6.82;;;1.60;;
33696;SDS011;20031;43.416;23.232;2022-09-21T06:59:59;6.63;;;1.02;;
33696;SDS011;20031;43.416;23.232;2022-09-21T07:02:25;2.50;;;1.02;;
33696;SDS011;20031;43.416;23.232;2022-09-21T07:04:50;2.42;;;0.90;;
33696;SDS011;20031;43.416;23.232;2022-09-21T07:07:15;4.75;;;1.33;;
33696;SDS011;20031;43.416;23.232;2022-09-21T07:09:41;3.63;;;1.10;;
33696;SDS011;20031;43.416;23.232;2022-09-21T07:12:06;4.72;;;1.20;;
33696;SDS011;20031;43.416;23.232;2022-09-21T07:14:32;2.97;;;1.00;;
33696;SDS011;20031;43.416;23.232;2022-09-21T07:16:58;1.63;;;1.00;;
33696;SDS011;20031;43.416;23.232;2022-09-21T07:19:23;1.40;;;0.77;;
33696;SDS011;20031;43.416;23.232;2022-09-21T07:21:51;3.72;;;0.88;;
33696;SDS011;20031;43.416;23.232;2022-09-21T07:24:18;1.77;;;0.70;;
33696;SDS011;20031;43.416;23.232;2022-09-21T07:26:43;1.13;;;0.70;;
33696;SDS011;20031;43.416;23.232;2022-09-21T07:29:08;3.53;;;1.10;;
33696;SDS011;20031;43.416;23.232;2022-09-21T07:31:34;2.40;;;0.70;;
33696;SDS011;20031;43.416;23.232;2022-09-21T07:33:59;1.88;;;0.70;;
33696;SDS011;20031;43.416;23.232;2022-09-21T07:36:25;0.88;;;0.57;;
33696;SDS011;20031;43.416;23.232;2022-09-21T07:38:51;2.22;;;0.73;;
33696;SDS011;20031;43.416;23.232;2022-09-21T07:41:18;1.15;;;0.60;;
33696;SDS011;20031;43.416;23.232;2022-09-21T07:43:43;2.72;;;0.60;;
33696;SDS011;20031;43.416;23.232;2022-09-21T07:46:10;0.77;;;0.60;;
33696;SDS011;20031;43.416;23.232;2022-09-21T07:48:37;2.22;;;0.68;;
33696;SDS011;20031;43.416;23.232;2022-09-21T07:51:04;1.92;;;0.75;;
33696;SDS011;20031;43.416;23.232;2022-09-21T07:53:35;1.52;;;0.80;;
33696;SDS011;20031;43.416;23.232;2022-09-21T07:56:02;1.17;;;0.60;;
33696;SDS011;20031;43.416;23.232;2022-09-21T07:58:29;0.80;;;0.50;;
33696;SDS011;20031;43.416;23.232;2022-09-21T08:01:13;1.27;;;0.80;;
33696;SDS011;20031;43.416;23.232;2022-09-21T08:03:39;2.95;;;0.60;;
33696;SDS011;20031;43.416;23.232;2022-09-21T08:06:05;4.28;;;0.80;;
33696;SDS011;20031;43.416;23.232;2022-09-21T08:08:31;9.35;;;0.70;;
33696;SDS011;20031;43.416;23.232;2022-09-21T08:11:01;3.67;;;0.70;;
33696;SDS011;20031;43.416;23.232;2022-09-21T08:13:29;10.32;;;0.70;;
33696;SDS011;20031;43.416;23.232;2022-09-21T08:16:00;3.13;;;0.80;;
33696;SDS011;20031;43.416;23.232;2022-09-21T08:18:27;3.22;;;0.93;;
33696;SDS011;20031;43.416;23.232;2022-09-21T08:20:56;1.58;;;0.60;;
33696;SDS011;20031;43.416;23.232;2022-09-21T08:23:24;2.03;;;0.90;;
33696;SDS011;20031;43.416;23.232;2022-09-21T08:25:56;6.65;;;0.82;;
33696;SDS011;20031;43.416;23.232;2022-09-21T08:28:24;8.05;;;1.40;;
33696;SDS011;20031;43.416;23.232;2022-09-21T08:30:49;4.57;;;0.85;;
33696;SDS011;20031;43.416;23.232;2022-09-21T08:33:15;3.10;;;0.80;;
33696;SDS011;20031;43.416;23.232;2022-09-21T08:35:40;2.20;;;0.57;;
33696;SDS011;20031;43.416;23.232;2022-09-21T08:38:06;4.85;;;0.77;;
33696;SDS011;20031;43.416;23.232;2022-09-21T08:40:31;5.22;;;1.02;;
33696;SDS011;20031;43.416;23.232;2022-09-21T08:43:03;4.13;;;0.82;;
33696;SDS011;20031;43.416;23.232;2022-09-21T08:45:37;0.88;;;0.60;;
33696;SDS011;20031;43.416;23.232;2022-09-21T08:48:09;0.88;;;0.68;;
33696;SDS011;20031;43.416;23.232;2022-09-21T08:50:44;3.85;;;1.02;;
33696;SDS011;20031;43.416;23.232;2022-09-21T08:53:21;3.17;;;0.90;;
33696;SDS011;20031;43.416;23.232;2022-09-21T08:56:10;4.45;;;1.10;;
33696;SDS011;20031;43.416;23.232;2022-09-21T08:58:36;1.70;;;0.90;;
33696;SDS011;20031;43.416;23.232;2022-09-21T09:01:07;3.78;;;1.08;;
33696;SDS011;20031;43.416;23.232;2022-09-21T09:14:47;1.13;;;0.60;;
33696;SDS011;20031;43.416;23.232;2022-09-21T09:20:10;5.13;;;0.90;;
33696;SDS011;20031;43.416;23.232;2022-09-21T09:22:41;1.80;;;0.60;;
33696;SDS011;20031;43.416;23.232;2022-09-21T09:25:20;2.67;;;0.77;;
33696;SDS011;20031;43.416;23.232;2022-09-21T09:30:18;4.45;;;0.90;;
33696;SDS011;20031;43.416;23.232;2022-09-21T09:37:57;0.88;;;0.70;;
33696;SDS011;20031;43.416;23.232;2022-09-21T09:41:11;3.60;;;0.73;;
33696;SDS011;20031;43.416;23.232;2022-09-21T09:46:39;1.10;;;0.90;;
33696;SDS011;20031;43.416;23.232;2022-09-21T09:52:04;1.10;;;0.80;;
33696;SDS011;20031;43.416;23.232;2022-09-21T09:54:33;1.70;;;0.85;;
33696;SDS011;20031;43.416;23.232;2022-09-21T09:57:00;3.15;;;0.98;;
33696;SDS011;20031;43.416;23.232;2022-09-21T10:02:19;4.25;;;1.20;;
33696;SDS011;20031;43.416;23.232;2022-09-21T10:04:59;1.63;;;0.98;;
33696;SDS011;20031;43.416;23.232;2022-09-21T10:07:39;2.03;;;1.17;;
33696;SDS011;20031;43.416;23.232;2022-09-21T10:10:25;3.78;;;0.98;;
33696;SDS011;20031;43.416;23.232;2022-09-21T10:21:00;2.78;;;1.40;;
33696;SDS011;20031;43.416;23.232;2022-09-21T10:23:26;1.63;;;1.10;;
33696;SDS011;20031;43.416;23.232;2022-09-21T10:26:01;2.78;;;1.33;;
33696;SDS011;20031;43.416;23.232;2022-09-21T10:28:30;2.28;;;1.30;;
33696;SDS011;20031;43.416;23.232;2022-09-21T10:33:45;4.75;;;1.20;;
33696;SDS011;20031;43.416;23.232;2022-09-21T10:36:48;3.47;;;1.50;;
33696;SDS011;20031;43.416;23.232;2022-09-21T10:42:05;16.83;;;2.30;;
33696;SDS011;20031;43.416;23.232;2022-09-21T10:44:37;1.40;;;1.30;;
33696;SDS011;20031;43.416;23.232;2022-09-21T10:49:51;3.83;;;1.65;;
33696;SDS011;20031;43.416;23.232;2022-09-21T10:52:20;5.40;;;2.22;;
33696;SDS011;20031;43.416;23.232;2022-09-21T10:54:49;2.15;;;1.33;;
33696;SDS011;20031;43.416;23.232;2022-09-21T10:57:19;2.65;;;1.50;;
33696;SDS011;20031;43.416;23.232;2022-09-21T10:59:47;2.97;;;1.67;;
33696;SDS011;20031;43.416;23.232;2022-09-21T11:02:23;4.85;;;1.63;;
33696;SDS011;20031;43.416;23.232;2022-09-21T11:05:06;7.55;;;2.10;;
33696;SDS011;20031;43.416;23.232;2022-09-21T11:13:00;2.25;;;1.38;;
33696;SDS011;20031;43.416;23.232;2022-09-21T11:20:59;6.35;;;1.25;;
33696;SDS011;20031;43.416;23.232;2022-09-21T11:28:57;2.50;;;1.23;;
33696;SDS011;20031;43.416;23.232;2022-09-21T11:37:13;3.28;;;1.70;;
33696;SDS011;20031;43.416;23.232;2022-09-21T11:44:54;6.70;;;1.20;;
33696;SDS011;20031;43.416;23.232;2022-09-21T11:58:01;1.80;;;1.10;;
33696;SDS011;20031;43.416;23.232;2022-09-21T12:03:37;3.47;;;0.80;;
33696;SDS011;20031;43.416;23.232;2022-09-21T12:06:39;5.57;;;1.30;;
33696;SDS011;20031;43.416;23.232;2022-09-21T12:15:16;2.97;;;0.80;;
33696;SDS011;20031;43.416;23.232;2022-09-21T12:17:51;6.10;;;0.90;;
33696;SDS011;20031;43.416;23.232;2022-09-21T12:23:16;1.70;;;0.98;;
33696;SDS011;20031;43.416;23.232;2022-09-21T12:25:48;2.45;;;1.05;;
33696;SDS011;20031;43.416;23.232;2022-09-21T12:28:19;1.48;;;1.00;;
33696;SDS011;20031;43.416;23.232;2022-09-21T12:30:52;1.42;;;0.90;;
33696;SDS011;20031;43.416;23.232;2022-09-21T12:36:11;2.53;;;1.10;;
33696;SDS011;20031;43.416;23.232;2022-09-21T12:38:44;1.63;;;1.00;;
33696;SDS011;20031;43.416;23.232;2022-09-21T12:43:52;1.77;;;0.90;;
33696;SDS011;20031;43.416;23.232;2022-09-21T12:46:33;1.25;;;1.02;;
33696;SDS011;20031;43.416;23.232;2022-09-21T12:49:00;2.05;;;1.00;;
33696;SDS011;20031;43.416;23.232;2022-09-21T12:51:40;3.42;;;1.17;;
33696;SDS011;20031;43.416;23.232;2022-09-21T12:54:16;1.40;;;1.05;;
33696;SDS011;20031;43.416;23.232;2022-09-21T12:57:52;2.13;;;1.20;;
33696;SDS011;20031;43.416;23.232;2022-09-21T13:00:02;3.22;;;1.10;;
33696;SDS011;20031;43.416;23.232;2022-09-21T13:05:12;0.90;;;0.60;;
33696;SDS011;20031;43.416;23.232;2022-09-21T13:13:03;3.00;;;1.08;;
33696;SDS011;20031;43.416;23.232;2022-09-21T13:15:32;6.45;;;1.60;;
33696;SDS011;20031;43.416;23.232;2022-09-21T13:20:42;5.90;;;1.33;;
33696;SDS011;20031;43.416;23.232;2022-09-21T13:23:20;4.07;;;1.00;;
33696;SDS011;20031;43.416;23.232;2022-09-21T13:25:49;5.28;;;1.10;;
33696;SDS011;20031;43.416;23.232;2022-09-21T13:34:06;2.45;;;0.90;;
33696;SDS011;20031;43.416;23.232;2022-09-21T13:36:41;4.03;;;1.00;;
33696;SDS011;20031;43.416;23.232;2022-09-21T13:41:32;2.63;;;1.10;;
33696;SDS011;20031;43.416;23.232;2022-09-21T13:44:03;4.57;;;0.90;;
33696;SDS011;20031;43.416;23.232;2022-09-21T13:49:30;3.58;;;0.95;;
33696;SDS011;20031;43.416;23.232;2022-09-21T13:54:31;1.73;;;0.90;;
33696;SDS011;20031;43.416;23.232;2022-09-21T14:00:08;2.25;;;0.70;;
33696;SDS011;20031;43.416;23.232;2022-09-21T14:07:59;1.23;;;0.68;;
33696;SDS011;20031;43.416;23.232;2022-09-21T14:10:27;0.90;;;0.50;;
33696;SDS011;20031;43.416;23.232;2022-09-21T14:12:56;0.55;;;0.55;;
33696;SDS011;20031;43.416;23.232;2022-09-21T14:18:08;3.75;;;0.95;;
33696;SDS011;20031;43.416;23.232;2022-09-21T14:20:40;2.15;;;0.95;;
33696;SDS011;20031;43.416;23.232;2022-09-21T14:23:32;2.58;;;1.10;;
33696;SDS011;20031;43.416;23.232;2022-09-21T14:25:59;1.65;;;1.10;;
33696;SDS011;20031;43.416;23.232;2022-09-21T14:28:33;6.15;;;1.30;;
33696;SDS011;20031;43.416;23.232;2022-09-21T14:31:17;2.63;;;1.17;;
33696;SDS011;20031;43.416;23.232;2022-09-21T14:33:53;4.45;;;1.33;;
33696;SDS011;20031;43.416;23.232;2022-09-21T14:36:25;2.20;;;1.17;;
33696;SDS011;20031;43.416;23.232;2022-09-21T14:39:00;4.43;;;1.17;;
33696;SDS011;20031;43.416;23.232;2022-09-21T14:41:30;3.30;;;1.10;;
33696;SDS011;20031;43.416;23.232;2022-09-21T14:44:01;1.60;;;1.20;;
33696;SDS011;20031;43.416;23.232;2022-09-21T15:05:43;2.45;;;0.80;;
33696;SDS011;20031;43.416;23.232;2022-09-21T15:14:05;1.35;;;1.00;;
33696;SDS011;20031;43.416;23.232;2022-09-21T15:16:52;2.03;;;0.82;;
33696;SDS011;20031;43.416;23.232;2022-09-21T15:19:25;1.58;;;1.00;;
33696;SDS011;20031;43.416;23.232;2022-09-21T15:21:56;1.95;;;1.00;;
33696;SDS011;20031;43.416;23.232;2022-09-21T15:24:47;2.15;;;0.95;;
33696;SDS011;20031;43.416;23.232;2022-09-21T15:27:26;1.75;;;0.93;;
33696;SDS011;20031;43.416;23.232;2022-09-21T15:30:01;5.93;;;1.30;;
33696;SDS011;20031;43.416;23.232;2022-09-21T15:32:42;3.03;;;1.10;;
33696;SDS011;20031;43.416;23.232;2022-09-21T15:35:20;2.33;;;1.10;;
33696;SDS011;20031;43.416;23.232;2022-09-21T15:37:48;5.35;;;1.85;;
33696;SDS011;20031;43.416;23.232;2022-09-21T15:40:26;6.05;;;0.90;;
33696;SDS011;20031;43.416;23.232;2022-09-21T15:43:04;2.60;;;1.58;;
33696;SDS011;20031;43.416;23.232;2022-09-21T15:45:45;3.65;;;1.90;;
33696;SDS011;20031;43.416;23.232;2022-09-21T15:48:10;1.98;;;1.40;;
33696;SDS011;20031;43.416;23.232;2022-09-21T15:50:37;2.88;;;1.30;;
33696;SDS011;20031;43.416;23.232;2022-09-21T15:53:12;4.15;;;1.33;;
33696;SDS011;20031;43.416;23.232;2022-09-21T15:55:46;2.40;;;1.55;;
33696;SDS011;20031;43.416;23.232;2022-09-21T15:58:32;2.42;;;1.38;;
33696;SDS011;20031;43.416;23.232;2022-09-21T16:01:10;4.60;;;1.60;;
33696;SDS011;20031;43.416;23.232;2022-09-21T16:03:39;5.10;;;1.45;;
33696;SDS011;20031;43.416;23.232;2022-09-21T16:08:50;3.03;;;1.45;;
33696;SDS011;20031;43.416;23.232;2022-09-21T16:13:43;4.40;;;1.70;;
33696;SDS011;20031;43.416;23.232;2022-09-21T16:16:30;3.55;;;1.90;;
33696;SDS011;20031;43.416;23.232;2022-09-21T16:18:56;6.03;;;1.52;;
33696;SDS011;20031;43.416;23.232;2022-09-21T16:23:53;6.20;;;2.40;;
33696;SDS011;20031;43.416;23.232;2022-09-21T16:26:25;4.80;;;1.95;;
33696;SDS011;20031;43.416;23.232;2022-09-21T16:28:56;3.95;;;2.28;;
33696;SDS011;20031;43.416;23.232;2022-09-21T16:31:39;8.60;;;2.17;;
33696;SDS011;20031;43.416;23.232;2022-09-21T16:34:21;7.60;;;2.00;;
33696;SDS011;20031;43.416;23.232;2022-09-21T16:36:57;7.18;;;2.58;;
33696;SDS011;20031;43.416;23.232;2022-09-21T16:39:23;5.35;;;2.00;;
33696;SDS011;20031;43.416;23.232;2022-09-21T16:41:53;8.07;;;1.80;;
33696;SDS011;20031;43.416;23.232;2022-09-21T16:44:24;6.50;;;2.50;;
33696;SDS011;20031;43.416;23.232;2022-09-21T16:46:58;11.57;;;3.80;;
33696;SDS011;20031;43.416;23.232;2022-09-21T16:49:27;14.25;;;3.15;;
33696;SDS011;20031;43.416;23.232;2022-09-21T16:51:57;8.18;;;2.58;;
33696;SDS011;20031;43.416;23.232;2022-09-21T16:54:23;6.78;;;2.60;;
33696;SDS011;20031;43.416;23.232;2022-09-21T16:56:51;7.95;;;2.85;;
33696;SDS011;20031;43.416;23.232;2022-09-21T16:59:19;9.23;;;2.92;;
33696;SDS011;20031;43.416;23.232;2022-09-21T17:01:46;11.45;;;3.00;;
33696;SDS011;20031;43.416;23.232;2022-09-21T17:04:16;3.72;;;2.85;;
33696;SDS011;20031;43.416;23.232;2022-09-21T17:06:43;11.63;;;4.38;;
33696;SDS011;20031;43.416;23.232;2022-09-21T17:09:14;18.23;;;5.32;;
33696;SDS011;20031;43.416;23.232;2022-09-21T17:11:40;15.65;;;5.97;;
33696;SDS011;20031;43.416;23.232;2022-09-21T17:14:09;15.32;;;6.47;;
33696;SDS011;20031;43.416;23.232;2022-09-21T17:16:40;15.45;;;6.13;;
33696;SDS011;20031;43.416;23.232;2022-09-21T17:19:09;14.57;;;5.20;;
33696;SDS011;20031;43.416;23.232;2022-09-21T17:21:35;13.02;;;5.22;;
33696;SDS011;20031;43.416;23.232;2022-09-21T17:24:01;15.52;;;6.00;;
33696;SDS011;20031;43.416;23.232;2022-09-21T17:26:26;8.93;;;3.70;;
33696;SDS011;20031;43.416;23.232;2022-09-21T17:28:52;9.60;;;3.80;;
33696;SDS011;20031;43.416;23.232;2022-09-21T17:31:17;8.65;;;3.85;;
33696;SDS011;20031;43.416;23.232;2022-09-21T17:33:47;7.82;;;4.65;;
33696;SDS011;20031;43.416;23.232;2022-09-21T17:36:14;6.95;;;3.35;;
33696;SDS011;20031;43.416;23.232;2022-09-21T17:38:40;9.60;;;4.15;;
33696;SDS011;20031;43.416;23.232;2022-09-21T17:41:49;9.60;;;3.58;;
33696;SDS011;20031;43.416;23.232;2022-09-21T17:44:41;16.33;;;4.30;;
33696;SDS011;20031;43.416;23.232;2022-09-21T17:47:20;15.38;;;4.10;;
33696;SDS011;20031;43.416;23.232;2022-09-21T17:49:49;19.33;;;4.10;;
33696;SDS011;20031;43.416;23.232;2022-09-21T17:52:16;15.30;;;3.30;;
33696;SDS011;20031;43.416;23.232;2022-09-21T17:55:02;19.50;;;3.90;;
33696;SDS011;20031;43.416;23.232;2022-09-21T18:02:41;17.58;;;3.40;;
33696;SDS011;20031;43.416;23.232;2022-09-21T18:07:47;6.40;;;2.10;;
33696;SDS011;20031;43.416;23.232;2022-09-21T18:10:14;6.72;;;2.40;;
33696;SDS011;20031;43.416;23.232;2022-09-21T18:21:19;8.25;;;2.75;;
33696;SDS011;20031;43.416;23.232;2022-09-21T18:26:41;4.65;;;2.88;;
33696;SDS011;20031;43.416;23.232;2022-09-21T18:29:29;8.13;;;2.28;;
33696;SDS011;20031;43.416;23.232;2022-09-21T18:37:07;2.65;;;2.00;;
33696;SDS011;20031;43.416;23.232;2022-09-21T18:42:51;6.85;;;1.67;;
33696;SDS011;20031;43.416;23.232;2022-09-21T18:45:24;3.10;;;1.70;;
33696;SDS011;20031;43.416;23.232;2022-09-21T18:51:09;2.05;;;1.70;;
33696;SDS011;20031;43.416;23.232;2022-09-21T18:53:39;8.45;;;2.15;;
33696;SDS011;20031;43.416;23.232;2022-09-21T18:56:11;4.63;;;1.85;;
33696;SDS011;20031;43.416;23.232;2022-09-21T18:58:38;3.17;;;2.00;;
33696;SDS011;20031;43.416;23.232;2022-09-21T19:01:09;5.57;;;2.20;;
33696;SDS011;20031;43.416;23.232;2022-09-21T19:03:36;8.98;;;3.22;;
33696;SDS011;20031;43.416;23.232;2022-09-21T19:08:58;11.73;;;4.18;;
33696;SDS011;20031;43.416;23.232;2022-09-21T19:11:38;12.55;;;4.40;;
33696;SDS011;20031;43.416;23.232;2022-09-21T19:14:10;12.52;;;4.47;;
33696;SDS011;20031;43.416;23.232;2022-09-21T19:16:42;9.32;;;4.20;;
33696;SDS011;20031;43.416;23.232;2022-09-21T19:22:02;8.95;;;3.55;;
33696;SDS011;20031;43.416;23.232;2022-09-21T19:27:45;10.88;;;5.18;;